Time;durP1;ratioP1;P1;durP2;ratioP2;P2;SDS_P1;SDS_P2;PMS_P1;PMS_P2;Temp;Humidity;BMP_temperature;BMP_pressure;BME280_temperature;BME280_humidity;BME280_pressure;Samples;Min_cycle;Max_cycle;Signal;HPM_P1;HPM_P2
2022/05/24 00:28:09;;;;;;;12.98;4.85;;;17.50;99.90;;;;;;6228482;23;20157;-85
2022/05/24 00:31:11;;;;;;;10.27;5.15;;;17.50;99.90;;;;;;6205713;28;20138;-85
2022/05/24 00:34:13;;;;;;;7.95;5.35;;;17.50;99.90;;;;;;6206120;28;20053;-85
2022/05/24 00:37:15;;;;;;;10.13;5.68;;;17.50;99.90;;;;;;6204586;28;20180;-86
2022/05/24 00:40:30;;;;;;;6.38;5.18;;;17.50;99.90;;;;;;6202540;28;20084;-86
2022/05/24 00:43:37;;;;;;;8.95;5.93;;;17.60;99.90;;;;;;6204542;28;20262;-86
2022/05/24 00:46:50;;;;;;;8.15;4.85;;;17.50;99.90;;;;;;6204749;28;20070;-85
2022/05/24 00:49:59;;;;;;;9.52;5.63;;;17.60;99.90;;;;;;6204565;28;20046;-86
2022/05/24 00:53:05;;;;;;;9.40;5.43;;;17.60;99.90;;;;;;6202819;28;20260;-85
2022/05/24 00:56:11;;;;;;;9.25;4.93;;;17.50;99.90;;;;;;6204357;28;20393;-84
2022/05/24 00:59:24;;;;;;;8.45;5.45;;;17.50;99.90;;;;;;6203723;28;20073;-84
2022/05/24 01:02:26;;;;;;;6.85;4.47;;;17.60;99.90;;;;;;6202469;28;20050;-86
2022/05/24 01:05:31;;;;;;;9.82;5.45;;;17.50;99.90;;;;;;6203245;28;20472;-84
2022/05/24 01:08:32;;;;;;;5.53;4.15;;;17.40;99.90;;;;;;6205900;28;20554;-85
2022/05/24 01:11:39;;;;;;;5.72;4.65;;;17.30;99.90;;;;;;6206611;28;20054;-85
2022/05/24 01:14:42;;;;;;;7.85;5.25;;;17.30;99.90;;;;;;6204252;28;20046;-85
2022/05/24 01:17:45;;;;;;;11.02;5.15;;;17.20;99.90;;;;;;6203679;28;20092;-85
2022/05/24 01:20:50;;;;;;;5.97;4.82;;;17.20;99.90;;;;;;6204101;28;20402;-84
2022/05/24 01:24:02;;;;;;;11.43;4.85;;;17.20;99.90;;;;;;6204265;28;20068;-85
2022/05/24 01:27:06;;;;;;;9.32;5.53;;;17.10;99.90;;;;;;6203885;28;20136;-85
2022/05/24 01:30:10;;;;;;;11.65;5.65;;;17.10;99.90;;;;;;6202864;28;20172;-85
2022/05/24 01:36:37;;;;;;;10.93;5.30;;;17.00;99.90;;;;;;6202967;28;20046;-84
2022/05/24 01:39:41;;;;;;;8.10;6.10;;;17.00;99.90;;;;;;6202527;28;20049;-84
2022/05/24 01:42:44;;;;;;;10.52;5.82;;;16.90;99.90;;;;;;6203772;28;20046;-84
2022/05/24 01:45:51;;;;;;;12.00;5.78;;;17.00;99.90;;;;;;6202112;28;20050;-85
2022/05/24 01:48:56;;;;;;;7.40;4.95;;;16.90;99.90;;;;;;6202814;28;20050;-86
2022/05/24 01:52:02;;;;;;;8.40;5.45;;;16.90;99.90;;;;;;6202369;28;20046;-84
2022/05/24 01:55:08;;;;;;;8.35;5.70;;;16.90;99.90;;;;;;6203189;28;20050;-84
2022/05/24 01:58:14;;;;;;;8.23;6.30;;;16.90;99.90;;;;;;6202515;28;20181;-86
2022/05/24 02:01:23;;;;;;;11.20;5.75;;;16.90;99.90;;;;;;6203072;28;20422;-84
2022/05/24 02:04:28;;;;;;;9.30;5.95;;;16.80;99.90;;;;;;6204650;28;20046;-85
2022/05/24 02:07:29;;;;;;;8.73;5.60;;;16.80;99.90;;;;;;6204469;28;20123;-86
2022/05/24 02:10:51;;;;;;;8.77;5.03;;;16.70;99.90;;;;;;6206877;28;20050;-85
2022/05/24 02:41:32;;;;;;;8.35;6.00;;;16.50;99.90;;;;;;6224905;28;20064;-86
2022/05/24 02:44:34;;;;;;;8.05;4.60;;;16.60;99.90;;;;;;6229775;28;20050;-86
2022/05/24 03:15:20;;;;;;;6.57;4.55;;;16.40;99.90;;;;;;6182644;28;20045;-86
2022/05/24 03:18:34;;;;;;;6.03;4.50;;;16.40;99.90;;;;;;6234730;28;20050;-85
2022/05/24 03:21:41;;;;;;;7.25;5.10;;;16.40;99.90;;;;;;6233892;28;20127;-86
2022/05/24 03:24:43;;;;;;;6.28;4.22;;;16.40;99.90;;;;;;6232604;28;20056;-86
2022/05/24 03:27:47;;;;;;;6.75;4.18;;;16.40;99.90;;;;;;6232582;28;20056;-86
2022/05/24 03:31:11;;;;;;;7.72;4.45;;;16.40;99.90;;;;;;6233134;28;20046;-84
2022/05/24 03:34:41;;;;;;;10.65;5.28;;;16.50;99.90;;;;;;6218834;28;20054;-86
2022/05/24 03:38:26;;;;;;;10.32;4.97;;;16.50;99.90;;;;;;6213608;28;20199;-86
2022/05/24 03:42:33;;;;;;;;;;;;;;;;;;;;;
2022/05/24 03:58:10;;;;;;;6.80;4.03;;;16.70;99.90;;;;;;6060263;29;20103;-85
2022/05/24 04:11:15;;;;;;;6.03;3.33;;;16.90;99.90;;;;;;6225855;28;20054;-85
2022/05/24 04:14:18;;;;;;;6.28;3.50;;;16.90;99.90;;;;;;6227755;28;20120;-86
2022/05/24 04:17:20;;;;;;;5.10;2.95;;;16.90;99.90;;;;;;6217327;28;20052;-85
2022/05/24 04:20:27;;;;;;;4.70;2.97;;;17.20;99.90;;;;;;6226581;28;20213;-85
2022/05/24 04:23:29;;;;;;;3.83;2.75;;;17.20;99.90;;;;;;6227412;28;20045;-85
2022/05/24 04:26:31;;;;;;;4.63;2.53;;;17.30;99.90;;;;;;6229365;28;20104;-86
2022/05/24 04:29:35;;;;;;;7.05;2.28;;;17.30;99.90;;;;;;6229121;28;20067;-85
2022/05/24 04:32:37;;;;;;;3.42;2.08;;;17.30;99.90;;;;;;6227612;28;20598;-85
2022/05/24 04:35:38;;;;;;;2.90;2.45;;;17.30;99.90;;;;;;6230244;28;20069;-85
2022/05/24 04:38:40;;;;;;;4.22;2.33;;;17.30;99.90;;;;;;6228969;28;20053;-84
2022/05/24 04:45:08;;;;;;;2.78;1.80;;;17.20;99.90;;;;;;6230431;28;20042;-86
2022/05/24 05:02:36;;;;;;;3.00;1.77;;;18.60;99.90;;;;;;6542220;23;20256;-86
2022/05/24 05:22:08;;;;;;;1.40;0.93;;;20.10;98.30;;;;;;5943411;29;20489;-86
2022/05/24 06:07:51;;;;;;;0.60;0.40;;;16.50;99.90;;;;;;6173041;28;20055;-84
2022/05/24 06:11:06;;;;;;;1.08;0.50;;;16.30;99.90;;;;;;6203197;28;20050;-84
2022/05/24 06:14:37;;;;;;;1.95;0.40;;;16.10;99.90;;;;;;6176011;28;20050;-85
2022/05/24 06:25:56;;;;;;;3.30;0.50;;;16.30;99.90;;;;;;5988439;29;20051;-84
2022/05/24 06:28:59;;;;;;;3.03;0.55;;;16.30;99.90;;;;;;6054282;28;20087;-84
2022/05/24 06:32:01;;;;;;;0.90;0.22;;;16.20;99.90;;;;;;6177245;28;20050;-84
2022/05/24 06:42:17;;;;;;;1.40;0.50;;;16.20;99.90;;;;;;6216720;28;20046;-86
2022/05/24 06:45:23;;;;;;;6.43;0.50;;;16.20;99.90;;;;;;6236020;28;20133;-88
2022/05/24 06:48:24;;;;;;;2.28;0.73;;;16.10;99.90;;;;;;6199078;28;20042;-85
2022/05/24 06:51:26;;;;;;;5.10;0.70;;;16.00;99.90;;;;;;6199506;28;20494;-83
2022/05/24 06:54:29;;;;;;;2.80;0.93;;;16.10;99.90;;;;;;6200345;28;20068;-84
2022/05/24 06:57:32;;;;;;;2.83;0.60;;;16.30;99.90;;;;;;6199101;28;20452;-85
2022/05/24 07:03:54;;;;;;;2.60;0.90;;;16.40;99.90;;;;;;6210064;28;20058;-84
2022/05/24 07:06:56;;;;;;;2.05;0.90;;;16.60;99.90;;;;;;6204923;28;20050;-85
2022/05/24 07:09:58;;;;;;;5.35;0.70;;;17.00;99.90;;;;;;6202615;28;20066;-85
2022/05/24 07:13:03;;;;;;;1.42;0.57;;;17.50;99.90;;;;;;6201608;28;20533;-84
2022/05/24 07:16:05;;;;;;;4.20;0.70;;;18.00;99.90;;;;;;6200393;28;20053;-85
2022/05/24 07:19:11;;;;;;;2.15;0.45;;;18.30;99.90;;;;;;6202565;28;20447;-85
2022/05/24 07:22:14;;;;;;;1.48;0.68;;;18.40;99.30;;;;;;6199496;28;20457;-86
2022/05/24 07:25:18;;;;;;;7.15;2.17;;;18.90;99.30;;;;;;6189084;28;20138;-85
2022/05/24 07:28:23;;;;;;;1.48;0.30;;;20.20;98.50;;;;;;6199018;28;20066;-85
2022/05/24 07:31:26;;;;;;;1.48;0.40;;;21.50;94.90;;;;;;6198905;28;20054;-86
2022/05/24 07:34:29;;;;;;;2.13;0.40;;;22.10;93.50;;;;;;6198962;28;20050;-86
2022/05/24 07:37:31;;;;;;;1.75;0.50;;;23.60;92.30;;;;;;6197878;28;20050;-86
2022/05/24 07:47:13;;;;;;;3.13;0.30;;;28.20;73.00;;;;;;6203153;28;20050;-86
2022/05/24 07:50:15;;;;;;;1.48;0.43;;;28.40;68.00;;;;;;6202328;28;20050;-87
2022/05/24 07:53:17;;;;;;;2.38;0.30;;;27.90;67.90;;;;;;6207144;28;20050;-85
2022/05/24 07:56:19;;;;;;;2.58;0.57;;;28.60;66.50;;;;;;6208741;28;20089;-84
2022/05/24 07:59:22;;;;;;;0.17;0.10;;;28.80;63.00;;;;;;6202955;28;20061;-85
2022/05/24 08:02:24;;;;;;;1.73;0.20;;;28.50;64.20;;;;;;6202740;28;20526;-85
2022/05/24 08:05:26;;;;;;;0.55;0.20;;;29.20;60.00;;;;;;6202321;28;20066;-85
2022/05/24 08:08:28;;;;;;;1.17;0.35;;;29.70;58.50;;;;;;6202727;28;20050;-86
2022/05/24 08:11:30;;;;;;;0.47;0.13;;;29.10;59.40;;;;;;6202892;28;20050;-85
2022/05/24 08:14:33;;;;;;;0.85;0.22;;;29.60;59.30;;;;;;6207832;28;20061;-86
2022/05/24 08:17:35;;;;;;;1.55;0.40;;;30.00;54.50;;;;;;6207388;28;20116;-86
2022/05/24 08:20:38;;;;;;;1.08;0.22;;;30.10;53.90;;;;;;6206609;28;20054;-87
2022/05/24 08:23:40;;;;;;;0.80;0.20;;;30.40;54.90;;;;;;6224901;28;20418;-85
2022/05/24 08:26:42;;;;;;;2.22;0.30;;;30.40;54.70;;;;;;6225837;28;20054;-85
2022/05/24 08:29:45;;;;;;;0.35;0.17;;;31.50;53.00;;;;;;6224864;28;20093;-84
2022/05/24 08:32:48;;;;;;;0.32;0.10;;;32.10;46.40;;;;;;6225080;28;20046;-85
2022/05/24 08:35:52;;;;;;;1.10;0.20;;;32.30;45.70;;;;;;6224733;28;20050;-84
2022/05/24 08:39:31;;;;;;;0.98;0.20;;;32.50;43.90;;;;;;6203062;28;20057;-86
2022/05/24 08:42:44;;;;;;;0.20;0.20;;;31.90;43.80;;;;;;6201337;28;20046;-87
2022/05/24 08:49:15;;;;;;;0.25;0.10;;;30.40;47.00;;;;;;6175871;28;20518;-85
2022/05/24 08:52:17;;;;;;;1.00;0.10;;;31.00;46.70;;;;;;6179576;28;20051;-86
2022/05/24 08:55:24;;;;;;;2.13;0.10;;;31.30;44.90;;;;;;6194754;28;20054;-86
2022/05/24 08:58:34;;;;;;;0.73;0.15;;;30.10;45.20;;;;;;6201323;28;20136;-86
2022/05/24 09:02:08;;;;;;;0.98;0.10;;;29.60;48.00;;;;;;6202194;28;20057;-86
2022/05/24 09:05:17;;;;;;;0.15;0.05;;;30.70;48.60;;;;;;6198812;28;20038;-87
2022/05/24 09:08:27;;;;;;;0.55;0.22;;;31.30;45.20;;;;;;6204838;28;20062;-86
2022/05/24 09:11:41;;;;;;;5.32;0.20;;;30.80;44.90;;;;;;6209560;28;20057;-86
2022/05/24 09:14:50;;;;;;;1.95;0.32;;;29.80;46.30;;;;;;6216251;28;20133;-87
2022/05/24 09:18:06;;;;;;;0.63;0.20;;;29.00;46.20;;;;;;6205227;28;20107;-86
2022/05/24 09:21:17;;;;;;;1.27;0.10;;;29.50;50.70;;;;;;6200671;28;20077;-87
2022/05/24 09:24:27;;;;;;;0.13;0.10;;;30.70;48.70;;;;;;6199912;28;20051;-87
2022/05/24 09:27:30;;;;;;;1.05;0.22;;;31.80;44.30;;;;;;6198324;28;20050;-85
2022/05/24 09:30:42;;;;;;;2.08;0.40;;;31.10;44.10;;;;;;6200878;28;20144;-87
2022/05/24 09:33:45;;;;;;;0.60;0.10;;;30.00;44.50;;;;;;6202162;28;20070;-86
2022/05/24 09:36:55;;;;;;;0.52;0.20;;;28.90;47.00;;;;;;6198748;28;20050;-87
2022/05/24 09:39:59;;;;;;;1.02;0.20;;;29.20;49.00;;;;;;6201165;28;20549;-86
2022/05/24 09:43:22;;;;;;;1.65;0.20;;;30.00;46.00;;;;;;6200651;28;20054;-86
2022/05/24 09:46:29;;;;;;;2.45;0.47;;;30.10;45.60;;;;;;6199219;28;20084;-86
2022/05/24 09:49:35;;;;;;;0.32;0.25;;;29.00;45.60;;;;;;6185979;28;20143;-85
2022/05/24 09:52:37;;;;;;;2.10;0.35;;;28.00;47.90;;;;;;6201623;28;20050;-84
2022/05/24 09:55:43;;;;;;;1.35;0.20;;;28.00;46.90;;;;;;6199109;28;20412;-86
2022/05/24 09:58:54;;;;;;;7.85;0.30;;;28.30;47.00;;;;;;6200126;28;20046;-86
2022/05/24 10:01:56;;;;;;;0.30;0.17;;;29.20;46.60;;;;;;6198322;28;20042;-83
2022/05/24 10:05:02;;;;;;;0.32;0.20;;;29.70;44.00;;;;;;6198445;28;20451;-85
2022/05/24 10:08:14;;;;;;;4.85;0.20;;;29.40;44.00;;;;;;6204155;28;20057;-85
2022/05/24 10:11:31;;;;;;;2.47;0.10;;;29.00;45.50;;;;;;6204872;28;20129;-85
2022/05/24 10:14:39;;;;;;;1.70;0.20;;;28.60;45.50;;;;;;6204079;28;20140;-84
2022/05/24 10:17:52;;;;;;;0.32;0.10;;;28.10;46.20;;;;;;6202929;28;20133;-85
2022/05/24 10:21:07;;;;;;;0.82;0.10;;;27.50;47.40;;;;;;6203704;28;20060;-84
2022/05/24 10:24:24;;;;;;;1.60;0.10;;;27.00;46.00;;;;;;6204714;28;20414;-83
2022/05/24 10:27:38;;;;;;;0.50;0.20;;;26.70;46.20;;;;;;6205027;28;20064;-85
2022/05/24 10:30:55;;;;;;;2.13;0.20;;;26.60;46.80;;;;;;6205065;28;20137;-84
2022/05/24 10:41:10;;;;;;;0.28;0.08;;;26.70;47.10;;;;;;6200294;28;20069;-83
2022/05/24 10:44:18;;;;;;;2.30;0.28;;;26.90;45.10;;;;;;6199339;28;20054;-86
2022/05/24 10:47:28;;;;;;;0.30;0.13;;;26.80;45.00;;;;;;6199503;28;20050;-86
2022/05/24 10:50:40;;;;;;;1.85;0.25;;;27.00;44.70;;;;;;6200613;28;20050;-87
2022/05/24 10:53:49;;;;;;;0.20;0.10;;;27.30;45.10;;;;;;6197912;28;20077;-85
2022/05/24 10:56:55;;;;;;;0.40;0.20;;;27.40;44.10;;;;;;6198145;28;20208;-85
2022/05/24 11:00:03;;;;;;;1.80;0.20;;;27.60;43.60;;;;;;6199342;28;20042;-84
2022/05/24 11:03:11;;;;;;;0.60;0.20;;;27.80;44.30;;;;;;6200841;28;20061;-85
2022/05/24 11:06:23;;;;;;;3.58;0.20;;;28.20;43.70;;;;;;6194342;28;20126;-88
2022/05/24 11:09:54;;;;;;;0.68;0.13;;;28.60;43.50;;;;;;6198870;28;20050;-89
2022/05/24 11:13:02;;;;;;;2.53;0.13;;;28.80;43.40;;;;;;6198212;28;20043;-87
2022/05/24 11:16:09;;;;;;;1.13;0.10;;;28.90;42.20;;;;;;6199464;28;20065;-87
2022/05/24 11:19:15;;;;;;;1.83;0.08;;;28.90;41.60;;;;;;6203242;28;20496;-87
2022/05/24 11:22:24;;;;;;;0.25;0.10;;;28.90;41.70;;;;;;6203945;28;20054;-88
2022/05/24 11:25:31;;;;;;;2.28;0.13;;;28.70;40.80;;;;;;6203073;28;20043;-85
2022/05/24 11:28:42;;;;;;;0.45;0.15;;;28.50;42.20;;;;;;6203208;28;20046;-86
2022/05/24 11:31:47;;;;;;;1.65;0.28;;;28.60;41.90;;;;;;6200924;28;20130;-87
2022/05/24 11:35:10;;;;;;;0.80;0.10;;;28.60;42.50;;;;;;6206994;28;20189;-86
2022/05/24 11:38:16;;;;;;;2.05;0.10;;;28.70;42.10;;;;;;6209352;28;20097;-87
2022/05/24 11:41:29;;;;;;;2.28;0.20;;;28.70;42.50;;;;;;6202637;28;20050;-84
2022/05/24 11:44:37;;;;;;;0.85;0.20;;;28.80;41.80;;;;;;6201809;28;20474;-83
2022/05/24 11:48:00;;;;;;;1.08;0.10;;;28.90;42.50;;;;;;6204004;28;20046;-85
2022/05/24 11:51:56;;;;;;;3.42;0.10;;;29.00;41.70;;;;;;6204962;28;20398;-87
2022/05/24 11:54:59;;;;;;;0.98;0.20;;;29.00;42.10;;;;;;6187574;28;20058;-86
2022/05/24 11:58:07;;;;;;;0.50;0.13;;;29.00;40.40;;;;;;6212655;28;20046;-86
2022/05/24 12:01:10;;;;;;;0.13;0.00;;;29.00;40.80;;;;;;6213202;28;20113;-85
2022/05/24 12:07:55;;;;;;;0.22;0.10;;;29.10;40.80;;;;;;6194796;28;20042;-84
2022/05/24 12:11:18;;;;;;;0.57;0.17;;;29.10;40.80;;;;;;6203192;28;20497;-85
2022/05/24 12:14:36;;;;;;;0.45;0.03;;;29.20;40.80;;;;;;6202931;28;20061;-85
2022/05/24 12:17:39;;;;;;;;;;;29.30;41.40;;;;;;6203315;28;20056;-85
2022/05/24 12:20:56;;;;;;;0.57;0.10;;;29.00;41.50;;;;;;6204024;28;19983;-85
2022/05/24 12:24:31;;;;;;;1.55;0.15;;;28.70;41.90;;;;;;6203867;28;20509;-86
2022/05/24 12:27:52;;;;;;;0.88;0.00;;;28.90;41.10;;;;;;6210637;28;20105;-85
2022/05/24 12:30:54;;;;;;;0.20;0.00;;;28.80;38.10;;;;;;6209708;28;20065;-85
2022/05/24 12:33:58;;;;;;;1.08;0.10;;;28.80;37.30;;;;;;6208068;28;20046;-84
2022/05/24 12:37:07;;;;;;;0.75;0.13;;;28.30;37.70;;;;;;6208334;28;20070;-84
2022/05/24 12:40:14;;;;;;;0.38;0.10;;;28.10;40.20;;;;;;6187171;28;20106;-86
2022/05/24 12:43:19;;;;;;;0.80;0.23;;;28.00;41.40;;;;;;6189397;28;20082;-86
2022/05/24 12:46:21;;;;;;;1.63;0.30;;;27.80;41.80;;;;;;6186477;28;20089;-86
2022/05/24 12:49:27;;;;;;;0.28;0.20;;;27.70;42.50;;;;;;6185232;28;20098;-84
2022/05/24 12:52:31;;;;;;;0.65;0.10;;;27.60;42.10;;;;;;6182473;28;20566;-85
2022/05/24 12:59:40;;;;;;;1.10;0.20;;;27.50;42.70;;;;;;6185306;28;20046;-83
2022/05/24 13:02:57;;;;;;;0.82;0.30;;;27.40;41.50;;;;;;6196688;28;20066;-84
2022/05/24 13:09:49;;;;;;;0.50;0.10;;;27.50;42.40;;;;;;6205513;28;20050;-83
2022/05/24 13:16:19;;;;;;;1.92;1.30;;;27.50;42.40;;;;;;6209413;28;20457;-80
2022/05/24 13:23:32;;;;;;;1.77;0.10;;;27.90;40.50;;;;;;6108833;28;20120;-81
2022/05/24 13:26:34;;;;;;;0.55;0.10;;;28.50;40.50;;;;;;6209316;28;20056;-82
2022/05/24 13:33:33;;;;;;;1.70;0.15;;;28.50;40.40;;;;;;6208456;28;20056;-84
2022/05/24 13:36:49;;;;;;;0.95;0.30;;;28.90;39.30;;;;;;6205560;28;20058;-84
2022/05/24 13:40:03;;;;;;;1.75;0.10;;;28.60;38.90;;;;;;6206946;28;20424;-84
2022/05/24 13:44:24;;;;;;;0.60;0.25;;;28.10;39.80;;;;;;6211462;28;20058;-84
2022/05/24 13:47:33;;;;;;;1.27;0.15;;;27.80;39.70;;;;;;6186898;28;20050;-83
2022/05/24 13:53:57;;;;;;;0.52;0.08;;;27.60;40.10;;;;;;6195347;28;20363;-84
2022/05/24 13:57:01;;;;;;;0.90;0.10;;;27.50;40.70;;;;;;6209185;28;20509;-83
2022/05/24 14:00:11;;;;;;;0.32;0.05;;;27.70;40.20;;;;;;6209085;28;20046;-82
2022/05/24 14:03:46;;;;;;;0.75;0.10;;;27.90;40.40;;;;;;6210809;28;20061;-86
2022/05/24 14:10:14;;;;;;;1.35;0.10;;;27.90;39.80;;;;;;6191952;28;20138;-83
2022/05/24 14:13:17;;;;;;;1.10;0.10;;;27.80;39.70;;;;;;6212659;28;20565;-83
2022/05/24 14:16:21;;;;;;;0.10;0.00;;;27.70;38.70;;;;;;6208717;28;20052;-84
2022/05/24 14:19:23;;;;;;;2.10;0.28;;;27.60;38.80;;;;;;6210838;28;20058;-85
2022/05/24 14:22:30;;;;;;;2.00;0.10;;;27.50;38.80;;;;;;6211753;28;20108;-83
2022/05/24 15:27:21;;;;;;;1.65;0.10;;;27.10;39.50;;;;;;6110121;28;20442;-87
2022/05/24 15:30:26;;;;;;;0.85;0.10;;;27.30;39.20;;;;;;6182085;28;20168;-85
2022/05/24 15:33:28;;;;;;;1.70;0.10;;;27.30;40.00;;;;;;6181749;28;20047;-86
2022/05/24 15:36:31;;;;;;;0.88;0.00;;;27.30;39.50;;;;;;6191455;28;20047;-87
2022/05/24 15:39:33;;;;;;;1.25;0.20;;;27.30;40.20;;;;;;6203806;28;20058;-86
2022/05/24 15:42:36;;;;;;;3.80;0.13;;;27.40;40.00;;;;;;6204628;28;20051;-85
2022/05/24 15:45:40;;;;;;;2.30;0.20;;;27.40;39.70;;;;;;6202107;28;20046;-86
2022/05/24 15:49:00;;;;;;;0.40;0.13;;;27.40;40.20;;;;;;6202008;28;20134;-86
2022/05/24 15:52:02;;;;;;;1.75;0.10;;;27.50;40.30;;;;;;6205914;28;20090;-84
2022/05/24 15:55:04;;;;;;;1.70;0.10;;;27.50;39.40;;;;;;6205086;28;20085;-85
2022/05/24 15:58:09;;;;;;;0.98;0.10;;;27.20;39.30;;;;;;6202498;28;20070;-83
2022/05/24 16:01:13;;;;;;;1.00;0.10;;;27.10;39.50;;;;;;6203037;28;20433;-85
2022/05/24 16:04:15;;;;;;;0.68;0.20;;;26.90;40.30;;;;;;6205725;28;20038;-85
2022/05/24 16:14:59;;;;;;;1.17;0.10;;;26.20;41.40;;;;;;6213077;28;20054;-86
2022/05/24 16:18:34;;;;;;;0.57;0.20;;;25.90;42.10;;;;;;6231663;28;20057;-85
2022/05/24 16:25:48;;;;;;;4.22;1.55;;;25.70;42.90;;;;;;6137484;28;20126;-86
2022/05/24 16:29:08;;;;;;;85.15;42.88;;;25.60;42.70;;;;;;6171790;28;20522;-87
2022/05/24 16:32:39;;;;;;;4.53;1.00;;;25.50;43.00;;;;;;6116925;29;20056;-86
2022/05/24 16:35:41;;;;;;;1.65;0.80;;;25.50;42.40;;;;;;6166417;28;20462;-88
2022/05/24 16:38:43;;;;;;;3.30;1.25;;;25.50;42.90;;;;;;6213164;28;20069;-86
2022/05/24 16:41:46;;;;;;;1.08;0.40;;;25.30;42.20;;;;;;6211681;28;20046;-85
2022/05/24 16:45:04;;;;;;;5.25;1.05;;;25.30;42.90;;;;;;6211572;28;20138;-84
2022/05/24 16:48:11;;;;;;;1.75;0.50;;;25.30;43.00;;;;;;6208155;28;20421;-85
2022/05/24 16:51:27;;;;;;;9.50;1.93;;;25.10;43.20;;;;;;6226119;28;20080;-86
2022/05/24 17:01:08;;;;;;;1.05;0.28;;;24.80;45.60;;;;;;6181196;28;20038;-86
2022/05/24 17:04:11;;;;;;;0.85;0.15;;;24.80;45.80;;;;;;6179568;28;20042;-86
2022/05/24 17:11:59;;;;;;;6.68;0.30;;;24.60;45.50;;;;;;6199363;28;20514;-86
2022/05/24 17:18:55;;;;;;;2.13;0.35;;;24.60;44.50;;;;;;6050435;28;20050;-86
2022/05/24 17:21:58;;;;;;;0.43;0.10;;;24.50;44.50;;;;;;6206525;28;20054;-86
2022/05/24 17:25:01;;;;;;;0.60;0.13;;;24.30;44.90;;;;;;6205705;28;20046;-84
2022/05/24 17:28:03;;;;;;;0.17;0.10;;;24.20;45.40;;;;;;6205187;28;20046;-86
2022/05/24 17:31:06;;;;;;;2.20;0.32;;;24.10;46.10;;;;;;6205809;28;20090;-86
2022/05/24 17:34:08;;;;;;;1.85;0.13;;;23.90;46.70;;;;;;6205662;28;20534;-86
2022/05/24 17:37:16;;;;;;;0.90;0.30;;;23.80;47.20;;;;;;6203241;28;20048;-84
2022/05/24 17:40:27;;;;;;;4.82;0.20;;;23.70;47.70;;;;;;6205711;28;20050;-84
2022/05/24 17:53:34;;;;;;;3.72;0.17;;;23.30;49.40;;;;;;6205139;28;20111;-84
2022/05/24 17:56:36;;;;;;;0.20;0.05;;;23.20;49.90;;;;;;6204477;28;20521;-83
2022/05/24 17:59:38;;;;;;;2.13;0.35;;;23.10;50.00;;;;;;6203054;28;20062;-85
2022/05/24 18:02:41;;;;;;;0.10;0.00;;;23.00;50.20;;;;;;6202881;28;20057;-85
2022/05/24 18:05:42;;;;;;;0.25;0.03;;;22.90;49.70;;;;;;6290915;23;20025;-82
2022/05/24 18:08:46;;;;;;;1.10;0.20;;;22.80;49.30;;;;;;6226228;28;20123;-84
2022/05/24 18:11:47;;;;;;;0.85;0.40;;;22.60;49.30;;;;;;6227424;28;20595;-84
2022/05/24 18:14:49;;;;;;;0.75;0.13;;;22.50;50.80;;;;;;6206581;28;20081;-82
2022/05/24 18:17:52;;;;;;;0.20;0.10;;;22.40;50.10;;;;;;6204463;28;20046;-85
2022/05/24 18:20:56;;;;;;;0.80;0.25;;;22.30;51.30;;;;;;6204769;28;20046;-82
2022/05/24 18:24:03;;;;;;;2.35;1.05;;;22.30;51.40;;;;;;6225066;28;20045;-82
2022/05/24 18:33:51;;;;;;;0.20;0.10;;;21.80;52.50;;;;;;6227687;28;20038;-82
2022/05/24 18:36:56;;;;;;;0.70;0.30;;;21.90;54.10;;;;;;6228341;28;20045;-82
2022/05/24 18:39:59;;;;;;;2.92;0.30;;;21.90;53.60;;;;;;6227173;28;20128;-82
2022/05/24 18:43:01;;;;;;;0.80;0.17;;;21.90;53.80;;;;;;6228011;28;20081;-82
2022/05/24 18:46:04;;;;;;;0.40;0.20;;;21.90;54.10;;;;;;6222867;28;20049;-81
2022/05/24 18:49:05;;;;;;;1.38;0.20;;;21.90;53.40;;;;;;6226401;28;20057;-81
2022/05/24 18:52:09;;;;;;;2.15;0.80;;;21.80;53.40;;;;;;6227418;28;20513;-83
2022/05/24 18:55:12;;;;;;;0.43;0.13;;;21.80;54.10;;;;;;6229344;28;20050;-84
2022/05/24 18:58:15;;;;;;;0.70;0.20;;;21.70;54.90;;;;;;6228621;28;20046;-83
2022/05/24 19:01:16;;;;;;;0.30;0.10;;;21.70;55.10;;;;;;6229017;28;20046;-84
2022/05/24 19:04:19;;;;;;;1.60;0.28;;;21.60;55.50;;;;;;6230503;28;20060;-83
2022/05/24 19:07:21;;;;;;;0.63;0.20;;;21.60;56.30;;;;;;6230606;28;20049;-82
2022/05/24 19:10:25;;;;;;;0.52;0.10;;;21.50;56.50;;;;;;6230092;28;20289;-83
2022/05/24 19:13:27;;;;;;;1.58;0.17;;;21.30;56.60;;;;;;6228506;28;20128;-83
2022/05/24 19:16:29;;;;;;;2.45;0.50;;;21.20;57.10;;;;;;6222246;28;20061;-82
2022/05/24 19:19:31;;;;;;;0.52;0.17;;;21.00;57.70;;;;;;6230451;28;20057;-83
2022/05/24 19:22:34;;;;;;;2.28;0.20;;;20.90;58.10;;;;;;6231661;28;20070;-83
2022/05/24 19:25:39;;;;;;;5.40;0.22;;;20.70;60.10;;;;;;6230057;28;20072;-83
2022/05/24 19:28:41;;;;;;;0.95;0.35;;;20.60;62.80;;;;;;6228713;28;20054;-83
2022/05/24 19:31:43;;;;;;;4.57;0.20;;;20.40;64.10;;;;;;6228475;28;20100;-82
2022/05/24 19:34:45;;;;;;;2.67;0.30;;;20.20;65.50;;;;;;6227967;28;20053;-82
2022/05/24 19:37:47;;;;;;;2.85;0.20;;;19.90;67.40;;;;;;6229608;28;20046;-82
2022/05/24 19:44:11;;;;;;;0.85;0.55;;;19.40;70.60;;;;;;6233511;28;20038;-82
2022/05/24 19:47:13;;;;;;;1.40;0.10;;;19.00;71.20;;;;;;6234290;28;20050;-82
2022/05/24 19:50:17;;;;;;;0.50;0.20;;;18.70;72.20;;;;;;6234093;28;20060;-84
2022/05/24 19:53:19;;;;;;;0.77;0.17;;;18.50;74.10;;;;;;6234889;28;20048;-82
2022/05/24 19:56:22;;;;;;;1.13;0.47;;;18.30;75.20;;;;;;6234431;28;20106;-83
2022/05/24 19:59:24;;;;;;;4.47;0.30;;;18.20;76.80;;;;;;6234543;28;20046;-83
2022/05/24 20:02:27;;;;;;;0.57;0.35;;;18.00;77.90;;;;;;6233908;28;20072;-84
2022/05/24 20:05:28;;;;;;;0.63;0.22;;;17.80;79.40;;;;;;6233344;28;20054;-83
2022/05/24 20:08:30;;;;;;;2.03;0.10;;;17.60;81.20;;;;;;6232202;28;20497;-83
2022/05/24 20:11:35;;;;;;;4.38;0.20;;;17.40;82.60;;;;;;6235574;28;20053;-83
2022/05/24 20:14:37;;;;;;;1.88;0.20;;;17.50;84.40;;;;;;6232943;28;20117;-84
2022/05/24 20:17:41;;;;;;;1.17;0.22;;;17.40;84.60;;;;;;6233962;28;20417;-83
2022/05/24 20:20:43;;;;;;;0.70;0.25;;;17.40;85.30;;;;;;6232280;28;20049;-84
2022/05/24 20:23:45;;;;;;;1.95;0.20;;;17.40;85.60;;;;;;6232025;28;20042;-83
2022/05/24 20:26:48;;;;;;;1.27;0.25;;;17.30;85.70;;;;;;6230635;28;20554;-82
2022/05/24 20:29:51;;;;;;;2.10;0.22;;;17.20;86.20;;;;;;6230616;28;20153;-82
2022/05/24 20:32:53;;;;;;;2.00;0.20;;;17.00;87.30;;;;;;6231927;28;20049;-82
2022/05/24 20:35:54;;;;;;;1.67;0.30;;;16.90;88.60;;;;;;6232728;28;20551;-82
2022/05/24 20:38:56;;;;;;;2.58;0.20;;;16.80;89.40;;;;;;6231312;28;20133;-83
2022/05/24 20:41:59;;;;;;;0.93;0.43;;;16.60;90.20;;;;;;6223140;28;20116;-83
2022/05/24 20:45:01;;;;;;;1.45;0.60;;;16.50;90.80;;;;;;6229984;28;20060;-83
2022/05/24 20:48:04;;;;;;;0.30;0.10;;;16.40;91.20;;;;;;6231100;28;20110;-83
2022/05/24 20:51:06;;;;;;;4.57;0.20;;;16.30;91.40;;;;;;6231956;28;20137;-82
2022/05/24 20:54:08;;;;;;;2.15;0.30;;;16.20;92.00;;;;;;6229379;28;20108;-84
2022/05/24 20:57:11;;;;;;;1.35;0.55;;;16.10;92.30;;;;;;6229979;28;20037;-82
2022/05/24 21:00:14;;;;;;;0.55;0.35;;;16.00;92.40;;;;;;6231303;28;20049;-84
2022/05/24 21:03:16;;;;;;;0.85;0.30;;;15.90;92.60;;;;;;6230803;28;20060;-82
2022/05/24 21:06:19;;;;;;;4.35;0.47;;;15.80;92.90;;;;;;6231090;28;20428;-83
2022/05/24 21:09:21;;;;;;;1.20;0.17;;;15.70;92.80;;;;;;6229022;28;20089;-83
2022/05/24 21:12:24;;;;;;;0.20;0.10;;;15.60;93.20;;;;;;6231121;28;20057;-82
2022/05/24 21:15:26;;;;;;;4.13;2.20;;;15.50;93.40;;;;;;6228192;28;20124;-83
2022/05/24 21:18:29;;;;;;;2.17;0.30;;;15.40;93.60;;;;;;6231056;28;20117;-83
2022/05/24 21:21:33;;;;;;;1.50;0.40;;;15.30;93.60;;;;;;6228970;28;20053;-83
2022/05/24 21:24:34;;;;;;;0.80;0.43;;;15.20;94.00;;;;;;6228603;28;20536;-83
2022/05/24 21:30:58;;;;;;;0.63;0.20;;;15.10;94.20;;;;;;6229704;28;20517;-83
2022/05/24 21:34:00;;;;;;;3.40;0.40;;;15.10;94.20;;;;;;6229332;28;20069;-82
2022/05/24 21:37:04;;;;;;;2.20;1.52;;;15.00;94.40;;;;;;6229633;28;20050;-83
2022/05/24 21:40:08;;;;;;;0.93;0.50;;;14.90;94.50;;;;;;6229800;28;20390;-83
2022/05/24 21:43:10;;;;;;;0.85;0.30;;;14.90;94.80;;;;;;6229404;28;20106;-83
2022/05/24 21:46:11;;;;;;;0.73;0.52;;;14.80;95.00;;;;;;6229191;28;20513;-83
2022/05/24 21:49:14;;;;;;;0.63;0.30;;;14.70;95.20;;;;;;6226026;28;20070;-83
2022/05/24 21:52:17;;;;;;;1.33;0.20;;;14.60;95.40;;;;;;6229592;28;20053;-84
2022/05/24 21:55:20;;;;;;;1.95;0.38;;;14.50;95.40;;;;;;6228048;28;20077;-84
2022/05/24 21:58:23;;;;;;;1.63;0.30;;;14.40;95.70;;;;;;6228772;28;20491;-83
2022/05/24 22:01:25;;;;;;;1.95;0.30;;;14.40;95.70;;;;;;6227137;28;20532;-83
2022/05/24 22:04:27;;;;;;;3.03;0.30;;;14.40;95.90;;;;;;6228246;28;20124;-84
2022/05/24 22:07:31;;;;;;;5.68;0.40;;;14.40;95.80;;;;;;6227137;28;20441;-84
2022/05/24 22:10:35;;;;;;;1.30;0.43;;;14.30;96.00;;;;;;6230402;28;20599;-84
2022/05/24 22:13:38;;;;;;;4.70;0.32;;;14.30;96.00;;;;;;6229522;28;20042;-84
2022/05/24 22:16:40;;;;;;;0.68;0.50;;;14.20;96.10;;;;;;6224732;28;20049;-83